Ridderkerk, Netherlands
Current Conditions -  °F | °C
As of 8:55 PM on Sunday 23 Nov 2014 (Local Time) from EHRD Reporting Station
Broken Clouds Broken Clouds  
Wind Chill: 52°   Ceiling: 1000
Heat Index: 52°   Visibility: 5mi
Dew Point: 50°   Wind: 16mph
Humidity: 94%   Direction: 350°N
Pressure: 29.94"   Gusts: NA
Location:  51.87°N, 4.6°E
Report Text: EHRD 231955Z AUTO 35014KT 310V030 8000 SCT007 SCT008 BKN01011/10 Q1014 BECMG 35015G28KT 4000 BKN008
Loading
Personal Weather Stations






























Interactive Weather Map New forecast layout! Learn more

10-Day Weather Forecast

Advertisements
Track Severe Weather on mobile